createdAt,value
2017-12-04T00:00:54.644Z,56.10
2017-12-04T00:03:20.854Z,59.13
2017-12-04T00:05:47.028Z,61.97
2017-12-04T00:08:13.173Z,66.83
2017-12-04T00:10:39.292Z,59.23
2017-12-04T00:13:05.429Z,59.87
2017-12-04T00:15:31.577Z,54.60
2017-12-04T00:17:57.697Z,55.53
2017-12-04T00:20:23.803Z,65.20
2017-12-04T00:22:49.964Z,65.97
2017-12-04T00:25:16.074Z,61.03
2017-12-04T00:27:42.193Z,75.83
2017-12-04T00:30:09.130Z,70.63
2017-12-04T00:32:35.196Z,63.93
2017-12-04T00:35:01.365Z,69.63
2017-12-04T00:37:27.446Z,73.57
2017-12-04T00:39:53.611Z,69.50
2017-12-04T00:42:19.735Z,63.57
2017-12-04T00:44:47.702Z,71.27
2017-12-04T00:47:15.573Z,65.20
2017-12-04T00:49:43.744Z,63.43
2017-12-04T00:52:11.621Z,75.60
2017-12-04T00:54:39.527Z,63.83
2017-12-04T00:57:05.764Z,65.50
2017-12-04T00:59:31.962Z,75.33
2017-12-04T01:01:58.086Z,65.80
2017-12-04T01:04:24.236Z,78.17
2017-12-04T01:06:50.359Z,67.53
2017-12-04T01:09:16.492Z,70.20
2017-12-04T01:11:42.698Z,81.20
2017-12-04T01:14:08.810Z,70.90
2017-12-04T01:16:34.906Z,75.33
2017-12-04T01:19:02.103Z,82.33
2017-12-04T01:21:28.317Z,78.60
2017-12-04T01:23:54.434Z,75.83
2017-12-04T01:26:22.368Z,88.53
2017-12-04T01:28:48.597Z,81.43
2017-12-04T01:31:15.386Z,85.10
2017-12-04T01:33:41.692Z,92.00
2017-12-04T01:36:07.828Z,83.50
2017-12-04T01:38:33.942Z,81.57
2017-12-04T01:41:01.004Z,77.30
2017-12-04T01:43:27.160Z,78.67
2017-12-04T01:45:53.292Z,73.10
2017-12-04T01:48:19.422Z,85.40
2017-12-04T01:50:45.550Z,76.43
2017-12-04T01:53:11.989Z,89.40
2017-12-04T01:55:38.154Z,99.30
2017-12-04T01:58:04.251Z,86.50
2017-12-04T02:00:30.593Z,87.63
2017-12-04T02:02:57.481Z,103.97
2017-12-04T02:05:23.711Z,92.70
2017-12-04T02:07:50.216Z,82.60
2017-12-04T02:10:16.779Z,83.37
2017-12-04T02:12:43.232Z,66.20
2017-12-04T02:15:09.534Z,77.90
2017-12-04T02:17:35.839Z,69.23
2017-12-04T02:20:02.992Z,60.63
2017-12-04T02:22:29.202Z,60.07
2017-12-04T02:24:55.332Z,62.83
2017-12-04T02:27:21.435Z,60.17
2017-12-04T02:29:47.549Z,56.13
2017-12-04T02:32:13.817Z,59.30
2017-12-04T02:34:40.034Z,56.17
2017-12-04T02:37:06.962Z,59.57
2017-12-04T02:39:33.134Z,49.13
2017-12-04T02:41:59.238Z,62.67
2017-12-04T02:44:25.329Z,55.13
2017-12-04T02:46:51.454Z,54.97
2017-12-04T02:49:17.546Z,51.90
2017-12-04T02:51:43.690Z,61.27
2017-12-04T02:54:09.846Z,54.40
2017-12-04T02:56:35.959Z,62.93
2017-12-04T02:59:02.107Z,59.37
2017-12-04T03:01:28.212Z,56.47
2017-12-04T03:03:54.368Z,58.27
2017-12-04T03:06:20.454Z,74.23
2017-12-04T03:08:46.604Z,70.97
2017-12-04T03:11:12.762Z,70.37
2017-12-04T03:13:38.890Z,66.10
2017-12-04T03:16:05.000Z,71.93
2017-12-04T03:18:31.840Z,68.37
2017-12-04T03:20:58.714Z,55.13
2017-12-04T03:23:24.825Z,54.57
2017-12-04T03:25:50.996Z,53.33
2017-12-04T03:28:17.151Z,48.77
2017-12-04T03:30:43.304Z,53.47
2017-12-04T03:33:09.458Z,49.57
2017-12-04T03:35:36.306Z,52.33
2017-12-04T03:38:02.465Z,52.30
2017-12-04T03:40:28.590Z,50.43
2017-12-04T03:42:55.438Z,42.30
2017-12-04T03:45:22.346Z,46.63
2017-12-04T03:47:48.491Z,46.63
2017-12-04T03:50:14.590Z,50.30
2017-12-04T03:52:40.709Z,43.33
2017-12-04T03:55:07.552Z,47.67
2017-12-04T03:57:33.640Z,43.03
2017-12-04T03:59:59.774Z,52.73
2017-12-04T04:02:25.864Z,43.00
2017-12-04T04:04:51.966Z,46.43
2017-12-04T04:07:18.087Z,43.37
2017-12-04T04:09:44.228Z,39.87
2017-12-04T04:12:10.317Z,39.00
2017-12-04T04:14:36.416Z,63.63
2017-12-04T04:17:02.532Z,42.10
2017-12-04T04:19:28.659Z,40.73
2017-12-04T04:21:54.798Z,39.27
2017-12-04T04:24:20.966Z,37.13
2017-12-04T04:26:47.057Z,37.60
2017-12-04T04:29:13.941Z,40.03
2017-12-04T04:31:40.063Z,37.37
2017-12-04T04:34:06.233Z,41.20
2017-12-04T04:36:32.366Z,33.73
2017-12-04T04:38:58.470Z,35.30
2017-12-04T04:41:25.316Z,33.10
2017-12-04T04:43:51.461Z,38.13
2017-12-04T04:46:17.635Z,31.20
2017-12-04T04:48:43.764Z,29.63
2017-12-04T04:51:09.899Z,31.23
2017-12-04T04:53:36.034Z,34.83
2017-12-04T04:56:02.185Z,30.47
2017-12-04T04:58:28.319Z,28.20
2017-12-04T05:00:54.432Z,21.33
2017-12-04T05:03:21.341Z,31.57
2017-12-04T05:05:47.568Z,28.40
2017-12-04T05:08:13.656Z,23.03
2017-12-04T05:10:39.802Z,26.90
2017-12-04T05:13:06.682Z,27.27
2017-12-04T05:15:32.789Z,20.97
2017-12-04T05:17:58.956Z,28.03
2017-12-04T05:20:25.093Z,36.57
2017-12-04T05:22:51.203Z,26.80
2017-12-04T05:25:18.085Z,21.27
2017-12-04T05:27:44.230Z,22.73
2017-12-04T05:30:10.399Z,24.53
2017-12-04T05:32:36.604Z,21.23
2017-12-04T05:35:02.761Z,22.67
2017-12-04T05:37:28.881Z,25.10
2017-12-04T05:39:55.053Z,25.20
2017-12-04T05:42:21.190Z,26.13
2017-12-04T05:44:47.370Z,26.33
2017-12-04T05:47:13.565Z,27.60
2017-12-04T05:49:39.661Z,19.97
2017-12-04T05:52:06.533Z,32.40
2017-12-04T05:54:32.693Z,25.30
2017-12-04T05:56:58.802Z,18.70
2017-12-04T05:59:25.944Z,21.03
2017-12-04T06:01:52.855Z,18.87
2017-12-04T06:04:18.969Z,31.23
2017-12-04T06:06:45.066Z,17.70
2017-12-04T06:09:11.212Z,22.20
2017-12-04T06:11:38.105Z,21.80
2017-12-04T06:14:04.221Z,23.60
2017-12-04T06:16:31.100Z,20.87
2017-12-04T06:18:57.215Z,19.63
2017-12-04T06:21:23.305Z,22.07
2017-12-04T06:23:49.446Z,22.70
2017-12-04T06:26:15.557Z,19.40
2017-12-04T06:28:41.730Z,29.13
2017-12-04T06:31:07.881Z,17.30
2017-12-04T06:33:34.008Z,17.03
2017-12-04T06:36:00.178Z,22.57
2017-12-04T06:38:27.098Z,25.67
2017-12-04T06:40:53.196Z,21.17
2017-12-04T06:43:20.265Z,16.23
2017-12-04T06:45:46.396Z,20.13
2017-12-04T06:48:12.786Z,11.40
2017-12-04T06:50:38.914Z,15.73
2017-12-04T06:53:05.076Z,14.57
2017-12-04T06:55:31.295Z,12.53
2017-12-04T06:57:57.399Z,16.53
2017-12-04T07:00:23.622Z,20.50
2017-12-04T07:02:49.714Z,16.30
2017-12-04T07:05:15.845Z,23.03
2017-12-04T07:07:41.992Z,21.13
2017-12-04T07:10:08.089Z,13.50
2017-12-04T07:12:34.193Z,18.40
2017-12-04T07:15:00.387Z,15.80
2017-12-04T07:17:26.512Z,18.67
2017-12-04T07:19:52.641Z,14.47
2017-12-04T07:22:18.835Z,20.33
2017-12-04T07:24:44.930Z,13.23
2017-12-04T07:27:11.036Z,10.40
2017-12-04T07:29:37.169Z,16.80
2017-12-04T07:32:03.449Z,18.53
2017-12-04T07:34:29.567Z,12.40
2017-12-04T07:36:55.745Z,18.53
2017-12-04T07:39:21.859Z,11.80
2017-12-04T07:41:47.995Z,15.57
2017-12-04T07:44:15.560Z,11.87
2017-12-04T07:46:41.741Z,13.43
2017-12-04T07:49:07.862Z,15.27
2017-12-04T07:51:34.050Z,13.13
2017-12-04T07:54:01.023Z,15.50
2017-12-04T07:56:27.151Z,12.47
2017-12-04T07:58:54.069Z,14.50
2017-12-04T08:01:20.197Z,14.10
2017-12-04T08:03:46.616Z,12.33
2017-12-04T08:06:12.785Z,18.87
2017-12-04T08:08:38.888Z,17.10
2017-12-04T08:11:05.066Z,9.03
2017-12-04T08:13:31.200Z,13.23
2017-12-04T08:15:57.397Z,15.03
2017-12-04T08:18:23.489Z,9.83
2017-12-04T08:20:49.647Z,17.10
2017-12-04T08:23:15.774Z,7.93
2017-12-04T08:25:41.893Z,17.17
2017-12-04T08:28:08.022Z,7.43
2017-12-04T08:30:34.179Z,18.23
2017-12-04T08:33:00.378Z,15.37
2017-12-04T08:35:26.537Z,14.80
2017-12-04T08:37:52.718Z,13.20
2017-12-04T08:40:18.886Z,16.30
2017-12-04T08:42:45.015Z,12.90
2017-12-04T08:45:11.945Z,12.43
2017-12-04T08:47:38.057Z,14.00
2017-12-04T08:50:04.217Z,14.83
2017-12-04T08:52:30.373Z,17.53
2017-12-04T08:54:57.212Z,12.77
2017-12-04T08:57:23.435Z,7.30
2017-12-04T08:59:49.645Z,13.60
2017-12-04T09:02:15.749Z,6.30
2017-12-04T09:04:42.617Z,10.43
2017-12-04T09:07:08.734Z,11.50
2017-12-04T09:09:35.661Z,18.97
2017-12-04T09:12:01.800Z,20.97
2017-12-04T09:14:27.936Z,12.40
2017-12-04T09:16:54.093Z,11.13
2017-12-04T09:19:20.248Z,10.73
2017-12-04T09:21:46.356Z,11.00
2017-12-04T09:24:12.465Z,10.30
2017-12-04T09:26:38.608Z,14.57
2017-12-04T09:29:04.750Z,15.30
2017-12-04T09:31:31.756Z,10.93
2017-12-04T09:33:59.688Z,14.80
2017-12-04T09:36:27.556Z,10.93
2017-12-04T09:38:55.464Z,9.93
2017-12-04T09:41:23.387Z,17.17
2017-12-04T09:43:51.336Z,13.47
2017-12-04T09:46:20.005Z,8.33
2017-12-04T09:48:47.937Z,12.67
2017-12-04T09:51:16.844Z,10.57
2017-12-04T09:53:44.759Z,4.13
2017-12-04T09:56:12.685Z,4.00
2017-12-04T09:58:40.590Z,6.90
2017-12-04T10:01:08.581Z,7.03
2017-12-04T10:03:36.565Z,7.00
2017-12-04T10:06:04.455Z,6.23
2017-12-04T10:08:32.400Z,3.13
2017-12-04T10:11:00.287Z,4.27
2017-12-04T10:13:28.158Z,3.80
2017-12-04T10:15:56.118Z,9.53
2017-12-04T10:18:24.049Z,15.00
2017-12-04T10:20:52.849Z,8.80
2017-12-04T10:23:20.716Z,10.00
2017-12-04T10:25:48.619Z,16.33
2017-12-04T10:28:16.576Z,16.13
2017-12-04T10:30:44.550Z,7.60
2017-12-04T10:33:12.432Z,12.47
2017-12-04T10:35:40.301Z,10.13
2017-12-04T10:38:08.185Z,8.60
2017-12-04T10:40:36.078Z,14.83
2017-12-04T10:43:04.050Z,5.63
2017-12-04T10:45:31.957Z,13.63
2017-12-04T10:47:59.832Z,12.03
2017-12-04T10:50:27.761Z,13.53
2017-12-04T10:52:55.707Z,24.67
2017-12-04T10:55:23.597Z,10.83
2017-12-04T10:57:51.493Z,15.10
2017-12-04T11:00:19.508Z,13.10
2017-12-04T11:02:47.368Z,13.93
2017-12-04T11:05:15.291Z,14.53
2017-12-04T11:07:43.154Z,12.73
2017-12-04T11:10:11.033Z,15.80
2017-12-04T11:12:38.909Z,10.13
2017-12-04T11:15:06.866Z,24.33
2017-12-04T11:17:34.748Z,11.47
2017-12-04T11:20:02.645Z,11.67
2017-12-04T11:22:30.530Z,11.50
2017-12-04T11:24:58.413Z,15.73
2017-12-04T11:27:26.711Z,10.23
2017-12-04T11:29:54.657Z,19.33
2017-12-04T11:32:22.578Z,9.30
2017-12-04T11:34:50.545Z,10.93
2017-12-04T11:37:18.388Z,11.23
2017-12-04T11:39:46.646Z,18.20
2017-12-04T11:42:14.532Z,21.10
2017-12-04T11:44:42.402Z,11.93
2017-12-04T11:47:10.265Z,12.60
2017-12-04T11:49:38.162Z,15.23
2017-12-04T11:52:06.069Z,18.30
2017-12-04T11:54:34.079Z,10.23
2017-12-04T11:57:01.965Z,15.33
2017-12-04T11:59:29.874Z,11.20
2017-12-04T12:01:57.996Z,16.00
2017-12-04T12:04:25.886Z,12.60
2017-12-04T12:06:53.826Z,12.13
2017-12-04T12:09:21.690Z,14.83
2017-12-04T12:11:49.657Z,8.63
2017-12-04T12:14:17.529Z,10.80
2017-12-04T12:16:45.393Z,9.43
2017-12-04T12:19:13.313Z,12.77
2017-12-04T12:21:41.208Z,7.33
2017-12-04T12:24:09.064Z,12.07
2017-12-04T12:26:36.982Z,8.60
2017-12-04T12:29:04.970Z,6.53
2017-12-04T12:31:32.850Z,8.17
2017-12-04T12:34:00.808Z,10.17
2017-12-04T12:36:29.048Z,9.73
2017-12-04T12:38:57.005Z,6.80
2017-12-04T12:41:25.782Z,10.10
2017-12-04T12:43:53.668Z,18.30
2017-12-04T12:46:21.537Z,8.97
2017-12-04T12:48:49.470Z,13.17
2017-12-04T12:51:17.328Z,16.50
2017-12-04T12:53:45.177Z,6.47
2017-12-04T12:56:13.060Z,10.23
2017-12-04T12:58:40.959Z,11.57
2017-12-04T13:01:08.826Z,8.47
2017-12-04T13:03:36.713Z,21.17
2017-12-04T13:06:04.584Z,11.67
2017-12-04T13:08:32.459Z,13.63
2017-12-04T13:11:00.340Z,12.20
2017-12-04T13:13:28.254Z,9.60
2017-12-04T13:15:56.145Z,11.50
2017-12-04T13:18:24.021Z,15.37
2017-12-04T13:20:51.904Z,11.90
2017-12-04T13:23:19.780Z,17.93
2017-12-04T13:25:47.681Z,16.37
2017-12-04T13:28:15.541Z,19.97
2017-12-04T13:30:43.448Z,37.27
2017-12-04T13:33:17.420Z,15.40
2017-12-04T13:35:51.486Z,19.03
2017-12-04T13:38:19.396Z,16.17
2017-12-04T13:40:48.455Z,10.30
2017-12-04T13:43:16.474Z,17.73
2017-12-04T13:45:44.394Z,12.20
2017-12-04T13:48:12.268Z,13.33
2017-12-04T13:50:40.208Z,11.20
2017-12-04T13:53:08.115Z,16.83
2017-12-04T13:55:36.009Z,10.60
2017-12-04T13:58:03.901Z,7.40
2017-12-04T14:00:31.820Z,5.07
2017-12-04T14:02:59.779Z,10.63
2017-12-04T14:05:27.683Z,6.60
2017-12-04T14:07:56.434Z,10.27
2017-12-04T14:10:25.172Z,8.47
2017-12-04T14:12:53.016Z,12.87
2017-12-04T14:15:20.924Z,12.93
2017-12-04T14:17:48.948Z,7.73
2017-12-04T14:20:16.865Z,5.80
2017-12-04T14:22:44.785Z,5.70
2017-12-04T14:25:12.669Z,11.43
2017-12-04T14:27:40.533Z,5.53
2017-12-04T14:30:08.441Z,6.97
2017-12-04T14:32:36.302Z,8.50
2017-12-04T14:35:04.216Z,11.80
2017-12-04T14:37:32.157Z,10.03
2017-12-04T14:40:00.106Z,12.43
2017-12-04T14:42:28.017Z,8.53
2017-12-04T14:44:55.895Z,6.60
2017-12-04T14:47:24.105Z,12.67
2017-12-04T14:49:51.949Z,6.53
2017-12-04T14:52:19.857Z,7.63
2017-12-04T14:54:48.568Z,13.83
2017-12-04T14:57:16.441Z,6.67
2017-12-04T14:59:44.642Z,8.27
2017-12-04T15:02:12.549Z,10.57
2017-12-04T15:04:40.504Z,18.73
2017-12-04T15:07:08.417Z,11.77
2017-12-04T15:09:37.920Z,9.40
2017-12-04T15:12:05.830Z,12.13
2017-12-04T15:14:33.732Z,9.30
2017-12-04T15:17:04.580Z,9.93
2017-12-04T15:19:32.449Z,11.20
2017-12-04T15:22:00.386Z,8.47
2017-12-04T15:24:28.281Z,14.47
2017-12-04T15:26:56.132Z,9.37
2017-12-04T15:31:58.332Z,9.50
2017-12-04T15:34:26.229Z,14.10
2017-12-04T15:36:54.069Z,8.43
2017-12-04T15:39:21.969Z,8.43
2017-12-04T15:41:49.853Z,10.30
2017-12-04T15:44:17.712Z,10.57
2017-12-04T15:46:45.634Z,7.97
2017-12-04T15:49:13.521Z,11.13
2017-12-04T15:51:41.384Z,18.93
2017-12-04T15:54:09.236Z,12.60
2017-12-04T15:56:37.125Z,10.67
2017-12-04T15:59:05.010Z,10.23
2017-12-04T16:01:32.958Z,11.80
2017-12-04T16:04:01.982Z,9.03
2017-12-04T16:06:30.194Z,10.40
2017-12-04T16:08:58.178Z,8.53
2017-12-04T16:11:26.289Z,5.30
2017-12-04T16:13:54.264Z,7.93
2017-12-04T16:16:22.987Z,5.77
2017-12-04T16:18:50.995Z,12.70
2017-12-04T16:21:21.279Z,8.83
2017-12-04T16:23:52.207Z,9.43
2017-12-04T16:26:20.155Z,6.47
2017-12-04T16:28:48.041Z,11.40
2017-12-04T16:31:17.140Z,22.00
2017-12-04T16:33:45.011Z,12.23
2017-12-04T16:36:12.897Z,9.07
2017-12-04T16:38:40.761Z,13.23
2017-12-04T16:41:08.732Z,7.93
2017-12-04T16:43:36.608Z,18.40
2017-12-04T16:46:04.917Z,8.27
2017-12-04T16:48:32.789Z,13.70
2017-12-04T16:51:00.681Z,9.23
2017-12-04T16:53:28.581Z,12.23
2017-12-04T16:55:56.460Z,17.87
2017-12-04T16:58:24.338Z,10.17
2017-12-04T17:00:52.177Z,7.50
2017-12-04T17:03:20.081Z,8.60
2017-12-04T17:05:47.975Z,10.20
2017-12-04T17:08:15.901Z,13.90
2017-12-04T17:10:43.792Z,7.90
2017-12-04T17:13:11.702Z,13.03
2017-12-04T17:15:39.620Z,9.67
2017-12-04T17:18:07.463Z,13.37
2017-12-04T17:20:35.357Z,7.13
2017-12-04T17:23:03.209Z,11.90
2017-12-04T17:25:31.227Z,15.53
2017-12-04T17:27:59.160Z,9.93
2017-12-04T17:30:27.108Z,14.07
2017-12-04T17:32:54.985Z,8.60
2017-12-04T17:35:22.874Z,8.83
2017-12-04T17:37:50.813Z,18.53
2017-12-04T17:40:18.680Z,10.40
2017-12-04T17:42:46.553Z,19.83
2017-12-04T17:45:14.460Z,10.60
2017-12-04T17:47:42.313Z,13.70
2017-12-04T17:50:10.566Z,13.40
2017-12-04T17:52:38.459Z,7.50
2017-12-04T17:55:06.338Z,17.33
2017-12-04T17:57:34.255Z,13.00
2017-12-04T18:00:02.115Z,16.13
2017-12-04T18:02:29.999Z,23.50
2017-12-04T18:04:57.980Z,9.90
2017-12-04T18:07:25.891Z,16.73
2017-12-04T18:09:53.732Z,19.00
2017-12-04T18:12:21.615Z,10.90
2017-12-04T18:14:49.474Z,16.17
2017-12-04T18:17:17.360Z,11.47
2017-12-04T18:19:45.225Z,27.60
2017-12-04T18:22:13.088Z,21.10
2017-12-04T18:24:41.018Z,25.27
2017-12-04T18:27:08.934Z,11.80
2017-12-04T18:29:38.898Z,19.57
2017-12-04T18:32:06.800Z,21.70
2017-12-04T18:34:34.689Z,19.50
2017-12-04T18:37:02.558Z,31.53
2017-12-04T18:39:30.416Z,21.37
2017-12-04T18:41:58.321Z,19.23
2017-12-04T18:44:27.604Z,19.07
2017-12-04T18:46:55.633Z,35.23
2017-12-04T18:49:23.515Z,18.33
2017-12-04T18:51:51.375Z,21.23
2017-12-04T18:54:19.224Z,15.80
2017-12-04T18:56:47.156Z,10.00
2017-12-04T18:59:15.263Z,10.20
2017-12-04T19:01:43.121Z,20.10
2017-12-04T19:04:11.462Z,27.63
2017-12-04T19:06:39.309Z,18.50
2017-12-04T19:09:07.177Z,17.23
2017-12-04T19:11:35.061Z,12.03
2017-12-04T19:14:03.577Z,17.50
2017-12-04T19:16:31.431Z,16.33
2017-12-04T19:18:59.345Z,18.70
2017-12-04T19:21:27.323Z,24.33
2017-12-04T19:23:55.194Z,15.00
2017-12-04T19:26:23.105Z,10.97
2017-12-04T19:28:51.040Z,12.90
2017-12-04T19:31:18.906Z,10.40
2017-12-04T19:33:47.047Z,8.13
2017-12-04T19:36:14.990Z,13.10
2017-12-04T19:38:42.833Z,12.67
2017-12-04T19:41:10.873Z,15.43
2017-12-04T19:43:38.729Z,14.20
2017-12-04T19:46:06.594Z,12.50
2017-12-04T19:48:34.497Z,10.80
2017-12-04T19:51:02.376Z,12.97
2017-12-04T19:53:30.221Z,10.13
2017-12-04T19:55:58.149Z,12.43
2017-12-04T19:58:26.016Z,10.77
2017-12-04T20:00:53.868Z,19.53
2017-12-04T20:03:21.766Z,11.87
2017-12-04T20:05:49.777Z,16.80
2017-12-04T20:08:17.686Z,20.30
2017-12-04T20:10:45.564Z,16.10
2017-12-04T20:13:13.502Z,10.40
2017-12-04T20:15:41.623Z,7.07
2017-12-04T20:18:09.524Z,10.37
2017-12-04T20:20:37.452Z,18.03
2017-12-04T20:23:05.299Z,14.80
2017-12-04T20:25:33.702Z,10.33
2017-12-04T20:28:01.651Z,9.53
2017-12-04T20:30:29.585Z,13.27
2017-12-04T20:32:57.518Z,12.50
2017-12-04T20:35:25.447Z,11.70
2017-12-04T20:37:53.314Z,16.90
2017-12-04T20:40:21.181Z,10.40
2017-12-04T20:42:49.132Z,10.10
2017-12-04T20:45:19.274Z,19.40
2017-12-04T20:47:48.428Z,13.07
2017-12-04T20:50:16.561Z,13.07
2017-12-04T20:52:44.869Z,16.07
2017-12-04T20:55:12.760Z,11.80
2017-12-04T20:57:40.700Z,10.47
2017-12-04T21:00:08.577Z,13.40
2017-12-04T21:02:36.469Z,18.77
2017-12-04T21:05:04.327Z,7.63
2017-12-04T21:07:38.538Z,9.10
2017-12-04T21:10:28.504Z,13.50
2017-12-04T21:13:02.471Z,11.83
2017-12-04T21:15:30.405Z,16.40
2017-12-04T21:17:58.275Z,16.43
2017-12-04T21:20:26.154Z,10.40
2017-12-04T21:22:54.045Z,12.50
2017-12-04T21:25:21.906Z,13.13
2017-12-04T21:27:49.788Z,17.50
2017-12-04T21:30:17.687Z,9.53
2017-12-04T21:32:45.677Z,36.10
2017-12-04T21:35:13.542Z,14.20
2017-12-04T21:37:41.454Z,10.37
2017-12-04T21:40:09.405Z,11.17
2017-12-04T21:42:37.667Z,16.03
2017-12-04T21:45:05.604Z,14.03
2017-12-04T21:47:33.776Z,14.93
2017-12-04T21:50:01.839Z,12.17
2017-12-04T21:52:30.115Z,7.20
2017-12-04T21:54:58.174Z,14.07
2017-12-04T21:57:26.115Z,7.50
2017-12-04T21:59:53.987Z,17.23
2017-12-04T22:02:21.951Z,9.13
2017-12-04T22:04:52.838Z,17.43
2017-12-04T22:07:20.762Z,16.63
2017-12-04T22:09:48.676Z,26.63
2017-12-04T22:12:16.652Z,13.37
2017-12-04T22:14:44.636Z,13.17
2017-12-04T22:17:12.844Z,15.47
2017-12-04T22:19:40.740Z,11.43
2017-12-04T22:22:08.678Z,10.20
2017-12-04T22:24:36.698Z,10.07
2017-12-04T22:27:04.602Z,23.57
2017-12-04T22:29:32.490Z,19.40
2017-12-04T22:32:00.433Z,12.20
2017-12-04T22:34:28.387Z,12.47
2017-12-04T22:36:56.224Z,14.63
2017-12-04T22:39:24.120Z,16.37
2017-12-04T22:41:51.967Z,13.37
2017-12-04T22:44:19.862Z,13.90
2017-12-04T22:46:47.758Z,10.07
2017-12-04T22:49:15.683Z,14.93
2017-12-04T22:51:43.547Z,12.00
2017-12-04T22:54:11.444Z,18.87
2017-12-04T22:56:39.374Z,20.23
2017-12-04T22:59:07.261Z,13.87
2017-12-04T23:01:35.257Z,28.87
2017-12-04T23:04:03.164Z,18.70
2017-12-04T23:06:31.105Z,16.43
2017-12-04T23:08:59.181Z,15.47
2017-12-04T23:11:27.165Z,13.17
2017-12-04T23:13:55.040Z,12.73
2017-12-04T23:16:22.905Z,19.10
2017-12-04T23:18:50.795Z,21.20
2017-12-04T23:21:18.824Z,25.70
2017-12-04T23:23:46.770Z,17.53
2017-12-04T23:26:14.656Z,12.87
2017-12-04T23:28:42.517Z,9.93
2017-12-04T23:31:10.519Z,14.53
2017-12-04T23:33:38.426Z,22.50
2017-12-04T23:36:06.372Z,17.93
2017-12-04T23:38:34.211Z,13.10
2017-12-04T23:41:02.164Z,18.47
2017-12-04T23:43:30.277Z,24.87
2017-12-04T23:45:58.164Z,15.37
2017-12-04T23:48:26.130Z,12.97
2017-12-04T23:50:54.512Z,13.07
2017-12-04T23:53:22.381Z,11.03
2017-12-04T23:55:50.253Z,18.40
2017-12-04T23:58:18.145Z,15.33
